sensor_id;sensor_type;location;lat;lon;timestamp;pressure;altitude;pressure_sealevel;temperature;humidity
44751;BME280;30477;48.224;11.470;2023-02-03T00:01:40;97122.16;;;3.96;77.46
44751;BME280;30477;48.224;11.470;2023-02-03T00:04:05;97113.56;;;3.97;77.41
44751;BME280;30477;48.224;11.470;2023-02-03T00:06:31;97121.22;;;3.97;77.24
44751;BME280;30477;48.224;11.470;2023-02-03T00:08:58;97127.28;;;3.96;77.16
44751;BME280;30477;48.224;11.470;2023-02-03T00:11:25;97127.28;;;3.96;77.00
44751;BME280;30477;48.224;11.470;2023-02-03T00:13:50;97130.66;;;3.96;77.08
44751;BME280;30477;48.224;11.470;2023-02-03T00:16:16;97123.13;;;3.93;76.69
44751;BME280;30477;48.224;11.470;2023-02-03T00:18:41;97111.09;;;3.95;77.08
44751;BME280;30477;48.224;11.470;2023-02-03T00:21:06;97112.88;;;3.93;76.66
44751;BME280;30477;48.224;11.470;2023-02-03T00:23:32;97106.78;;;3.96;76.47
44751;BME280;30477;48.224;11.470;2023-02-03T00:26:05;97098.88;;;4.00;76.53
44751;BME280;30477;48.224;11.470;2023-02-03T00:28:31;97112.44;;;4.02;76.42
44751;BME280;30477;48.224;11.470;2023-02-03T00:30:56;97113.72;;;3.94;76.29
44751;BME280;30477;48.224;11.470;2023-02-03T00:33:21;97096.47;;;3.97;76.42
44751;BME280;30477;48.224;11.470;2023-02-03T00:35:47;97106.72;;;3.97;76.08
44751;BME280;30477;48.224;11.470;2023-02-03T00:38:13;97105.03;;;3.96;76.06
44751;BME280;30477;48.224;11.470;2023-02-03T00:40:39;97111.00;;;3.97;76.25
44751;BME280;30477;48.224;11.470;2023-02-03T00:43:04;97104.00;;;4.00;76.03
44751;BME280;30477;48.224;11.470;2023-02-03T00:45:29;97110.78;;;4.01;76.04
44751;BME280;30477;48.224;11.470;2023-02-03T00:47:55;97117.72;;;3.99;75.76
44751;BME280;30477;48.224;11.470;2023-02-03T00:50:20;97114.03;;;4.05;76.01
44751;BME280;30477;48.224;11.470;2023-02-03T00:52:45;97120.88;;;4.04;75.77
44751;BME280;30477;48.224;11.470;2023-02-03T00:55:11;97120.13;;;4.02;75.85
44751;BME280;30477;48.224;11.470;2023-02-03T00:57:36;97124.34;;;4.03;75.68
44751;BME280;30477;48.224;11.470;2023-02-03T01:00:02;97119.31;;;4.02;75.48
44751;BME280;30477;48.224;11.470;2023-02-03T01:02:27;97113.13;;;4.06;75.59
44751;BME280;30477;48.224;11.470;2023-02-03T01:04:53;97120.06;;;4.04;75.39
44751;BME280;30477;48.224;11.470;2023-02-03T01:07:18;97123.38;;;4.06;75.31
44751;BME280;30477;48.224;11.470;2023-02-03T01:09:44;97120.13;;;4.02;75.10
44751;BME280;30477;48.224;11.470;2023-02-03T01:12:09;97121.16;;;3.98;74.93
44751;BME280;30477;48.224;11.470;2023-02-03T01:14:34;97123.72;;;3.98;75.30
44751;BME280;30477;48.224;11.470;2023-02-03T01:17:00;97114.25;;;4.00;75.21
44751;BME280;30477;48.224;11.470;2023-02-03T01:19:25;97116.06;;;3.98;75.01
44751;BME280;30477;48.224;11.470;2023-02-03T01:21:51;97123.66;;;4.00;74.81
44751;BME280;30477;48.224;11.470;2023-02-03T01:24:16;97117.63;;;4.01;74.93
44751;BME280;30477;48.224;11.470;2023-02-03T01:26:42;97117.56;;;4.02;74.75
44751;BME280;30477;48.224;11.470;2023-02-03T01:29:08;97108.91;;;4.05;74.78
44751;BME280;30477;48.224;11.470;2023-02-03T01:31:36;97110.50;;;4.07;74.78
44751;BME280;30477;48.224;11.470;2023-02-03T01:34:04;97083.06;;;4.10;74.29
44751;BME280;30477;48.224;11.470;2023-02-03T01:36:32;97110.22;;;4.14;74.28
44751;BME280;30477;48.224;11.470;2023-02-03T01:38:57;97089.72;;;4.14;74.14
44751;BME280;30477;48.224;11.470;2023-02-03T01:41:25;97100.84;;;4.13;73.96
44751;BME280;30477;48.224;11.470;2023-02-03T01:43:53;97106.88;;;4.12;73.97
44751;BME280;30477;48.224;11.470;2023-02-03T01:48:47;97085.31;;;4.16;74.01
44751;BME280;30477;48.224;11.470;2023-02-03T01:51:13;97099.03;;;4.15;73.87
44751;BME280;30477;48.224;11.470;2023-02-03T01:53:39;97086.22;;;4.15;73.77
44751;BME280;30477;48.224;11.470;2023-02-03T01:56:05;97083.59;;;4.16;73.64
44751;BME280;30477;48.224;11.470;2023-02-03T01:58:35;97086.91;;;4.18;73.67
44751;BME280;30477;48.224;11.470;2023-02-03T02:01:02;97073.94;;;4.21;73.64
44751;BME280;30477;48.224;11.470;2023-02-03T02:03:54;97076.66;;;4.18;73.41
44751;BME280;30477;48.224;11.470;2023-02-03T02:06:22;97082.75;;;4.16;73.48
44751;BME280;30477;48.224;11.470;2023-02-03T02:08:50;97075.16;;;4.14;73.42
44751;BME280;30477;48.224;11.470;2023-02-03T02:11:16;97086.22;;;4.15;73.41
44751;BME280;30477;48.224;11.470;2023-02-03T02:13:44;97092.09;;;4.17;73.48
44751;BME280;30477;48.224;11.470;2023-02-03T02:40:37;97077.31;;;4.22;72.62
44751;BME280;30477;48.224;11.470;2023-02-03T02:43:20;97095.25;;;4.22;72.62
44751;BME280;30477;48.224;11.470;2023-02-03T02:45:51;97105.50;;;4.22;72.53
44751;BME280;30477;48.224;11.470;2023-02-03T02:48:35;97095.13;;;4.25;72.49
44751;BME280;30477;48.224;11.470;2023-02-03T02:51:04;97091.06;;;4.21;72.71
44751;BME280;30477;48.224;11.470;2023-02-03T02:53:41;97079.00;;;4.23;72.54
44751;BME280;30477;48.224;11.470;2023-02-03T02:56:09;97076.13;;;4.29;72.44
44751;BME280;30477;48.224;11.470;2023-02-03T02:58:38;97080.22;;;4.33;72.33
44751;BME280;30477;48.224;11.470;2023-02-03T03:01:07;97088.94;;;4.29;72.26
44751;BME280;30477;48.224;11.470;2023-02-03T03:03:33;97091.50;;;4.29;72.53
44751;BME280;30477;48.224;11.470;2023-02-03T03:06:01;97094.66;;;4.34;72.27
44751;BME280;30477;48.224;11.470;2023-02-03T03:08:49;97090.28;;;4.36;72.12
44751;BME280;30477;48.224;11.470;2023-02-03T03:11:18;97075.59;;;4.40;72.07
44751;BME280;30477;48.224;11.470;2023-02-03T03:13:48;97083.97;;;4.43;71.97
44751;BME280;30477;48.224;11.470;2023-02-03T03:16:15;97086.75;;;4.39;71.90
44751;BME280;30477;48.224;11.470;2023-02-03T03:18:48;97086.97;;;4.34;71.97
44751;BME280;30477;48.224;11.470;2023-02-03T03:21:27;97085.34;;;4.33;71.84
44751;BME280;30477;48.224;11.470;2023-02-03T03:23:58;97079.53;;;4.30;71.92
44751;BME280;30477;48.224;11.470;2023-02-03T03:26:49;97074.25;;;4.33;72.01
44751;BME280;30477;48.224;11.470;2023-02-03T03:29:30;97064.81;;;4.33;71.83
44751;BME280;30477;48.224;11.470;2023-02-03T03:31:59;97058.78;;;4.34;71.80
44751;BME280;30477;48.224;11.470;2023-02-03T03:34:25;97067.97;;;4.38;71.90
44751;BME280;30477;48.224;11.470;2023-02-03T03:36:57;97074.91;;;4.36;71.80
44751;BME280;30477;48.224;11.470;2023-02-03T03:39:41;97057.72;;;4.38;71.80
44751;BME280;30477;48.224;11.470;2023-02-03T03:45:02;97042.78;;;4.46;71.61
44751;BME280;30477;48.224;11.470;2023-02-03T03:47:40;97044.03;;;4.39;71.26
44751;BME280;30477;48.224;11.470;2023-02-03T03:50:12;97052.59;;;4.38;71.34
44751;BME280;30477;48.224;11.470;2023-02-03T03:52:41;97070.84;;;4.32;71.18
44751;BME280;30477;48.224;11.470;2023-02-03T03:55:09;97064.81;;;4.33;71.09
44751;BME280;30477;48.224;11.470;2023-02-03T03:57:53;97068.28;;;4.32;71.23
44751;BME280;30477;48.224;11.470;2023-02-03T04:00:22;97069.88;;;4.35;71.29
44751;BME280;30477;48.224;11.470;2023-02-03T04:02:52;97061.50;;;4.31;71.13
44751;BME280;30477;48.224;11.470;2023-02-03T04:05:20;97050.56;;;4.27;71.08
44751;BME280;30477;48.224;11.470;2023-02-03T04:07:46;97055.69;;;4.27;71.20
44751;BME280;30477;48.224;11.470;2023-02-03T04:12:46;97061.19;;;4.20;71.14
44751;BME280;30477;48.224;11.470;2023-02-03T04:15:11;97087.75;;;4.19;71.08
44751;BME280;30477;48.224;11.470;2023-02-03T04:17:36;97086.91;;;4.18;71.10
44751;BME280;30477;48.224;11.470;2023-02-03T04:20:03;97098.97;;;4.16;71.13
44751;BME280;30477;48.224;11.470;2023-02-03T04:22:29;97103.25;;;4.16;71.23
44751;BME280;30477;48.224;11.470;2023-02-03T04:24:56;97107.56;;;4.15;71.40
44751;BME280;30477;48.224;11.470;2023-02-03T04:27:25;97113.50;;;4.16;71.41
44751;BME280;30477;48.224;11.470;2023-02-03T04:29:50;97112.31;;;4.23;71.33
44751;BME280;30477;48.224;11.470;2023-02-03T04:32:16;97106.44;;;4.21;71.19
44751;BME280;30477;48.224;11.470;2023-02-03T04:34:42;97101.59;;;4.15;71.19
44751;BME280;30477;48.224;11.470;2023-02-03T04:37:07;97079.59;;;4.11;71.31
44751;BME280;30477;48.224;11.470;2023-02-03T04:39:32;97081.28;;;4.12;71.29
44751;BME280;30477;48.224;11.470;2023-02-03T04:41:58;97089.84;;;4.11;71.20
44751;BME280;30477;48.224;11.470;2023-02-03T04:44:23;97101.13;;;4.06;71.38
44751;BME280;30477;48.224;11.470;2023-02-03T04:46:48;97098.59;;;4.06;71.47
44751;BME280;30477;48.224;11.470;2023-02-03T04:49:14;97101.22;;;4.05;71.35
44751;BME280;30477;48.224;11.470;2023-02-03T04:51:41;97083.38;;;4.03;71.41
44751;BME280;30477;48.224;11.470;2023-02-03T04:54:08;97096.94;;;4.05;71.44
44751;BME280;30477;48.224;11.470;2023-02-03T04:56:33;97104.63;;;4.05;71.40
44751;BME280;30477;48.224;11.470;2023-02-03T04:58:59;97108.22;;;4.01;71.35
44751;BME280;30477;48.224;11.470;2023-02-03T05:01:24;97100.38;;;4.04;71.47
44751;BME280;30477;48.224;11.470;2023-02-03T05:03:49;97104.75;;;4.02;71.43
44751;BME280;30477;48.224;11.470;2023-02-03T05:06:14;97094.44;;;4.04;71.61
44751;BME280;30477;48.224;11.470;2023-02-03T05:08:40;97100.38;;;4.04;71.42
44751;BME280;30477;48.224;11.470;2023-02-03T05:11:05;97104.00;;;4.00;71.51
44751;BME280;30477;48.224;11.470;2023-02-03T05:13:30;97109.28;;;3.97;71.68
44751;BME280;30477;48.224;11.470;2023-02-03T05:15:56;97112.50;;;4.01;71.60
44751;BME280;30477;48.224;11.470;2023-02-03T05:18:21;97109.00;;;4.03;71.68
44751;BME280;30477;48.224;11.470;2023-02-03T05:20:47;97100.63;;;4.00;71.65
44751;BME280;30477;48.224;11.470;2023-02-03T05:23:12;97072.44;;;4.00;71.55
44751;BME280;30477;48.224;11.470;2023-02-03T05:25:37;97093.16;;;3.95;71.36
44751;BME280;30477;48.224;11.470;2023-02-03T05:28:03;97087.28;;;3.93;71.72
44751;BME280;30477;48.224;11.470;2023-02-03T05:30:28;97078.84;;;3.91;71.66
44751;BME280;30477;48.224;11.470;2023-02-03T05:32:53;97066.78;;;3.93;71.79
44751;BME280;30477;48.224;11.470;2023-02-03T05:35:19;97071.16;;;3.91;71.62
44751;BME280;30477;48.224;11.470;2023-02-03T05:37:44;97074.69;;;3.89;71.91
44751;BME280;30477;48.224;11.470;2023-02-03T05:40:11;97064.28;;;3.92;71.82
44751;BME280;30477;48.224;11.470;2023-02-03T05:42:55;97058.19;;;3.94;71.89
44751;BME280;30477;48.224;11.470;2023-02-03T05:45:21;97058.06;;;3.97;71.74
44751;BME280;30477;48.224;11.470;2023-02-03T05:47:46;97049.44;;;3.98;71.70
44751;BME280;30477;48.224;11.470;2023-02-03T05:50:12;97051.13;;;3.99;71.76
44751;BME280;30477;48.224;11.470;2023-02-03T05:52:37;97053.59;;;4.01;71.59
44751;BME280;30477;48.224;11.470;2023-02-03T05:55:03;97052.63;;;4.03;71.36
44751;BME280;30477;48.224;11.470;2023-02-03T05:57:28;97065.75;;;3.97;71.47
44751;BME280;30477;48.224;11.470;2023-02-03T05:59:54;97071.75;;;3.96;71.41
44751;BME280;30477;48.224;11.470;2023-02-03T06:02:19;97061.97;;;4.04;71.57
44751;BME280;30477;48.224;11.470;2023-02-03T06:04:44;97050.53;;;4.12;71.39
44751;BME280;30477;48.224;11.470;2023-02-03T06:07:10;97056.53;;;4.11;71.18
44751;BME280;30477;48.224;11.470;2023-02-03T06:09:35;97053.16;;;4.10;71.16
44751;BME280;30477;48.224;11.470;2023-02-03T06:12:00;97074.34;;;4.14;71.13
44751;BME280;30477;48.224;11.470;2023-02-03T06:14:26;97075.28;;;4.11;70.96
44751;BME280;30477;48.224;11.470;2023-02-03T06:16:52;97067.53;;;4.13;71.17
44751;BME280;30477;48.224;11.470;2023-02-03T06:19:18;97071.03;;;4.12;70.97
44751;BME280;30477;48.224;11.470;2023-02-03T06:21:43;97072.97;;;4.06;70.95
44751;BME280;30477;48.224;11.470;2023-02-03T06:24:09;97093.22;;;4.11;70.94
44751;BME280;30477;48.224;11.470;2023-02-03T06:26:34;97099.97;;;4.14;71.39
44751;BME280;30477;48.224;11.470;2023-02-03T06:28:59;97103.19;;;4.17;70.77
44751;BME280;30477;48.224;11.470;2023-02-03T06:31:25;97080.94;;;4.18;70.82
44751;BME280;30477;48.224;11.470;2023-02-03T06:33:50;97083.31;;;4.22;70.86
44751;BME280;30477;48.224;11.470;2023-02-03T06:36:16;97073.94;;;4.21;70.62
44751;BME280;30477;48.224;11.470;2023-02-03T06:38:41;97066.50;;;4.17;70.67
44751;BME280;30477;48.224;11.470;2023-02-03T06:41:06;97060.44;;;4.18;70.59
44751;BME280;30477;48.224;11.470;2023-02-03T06:43:32;97070.56;;;4.21;70.34
44751;BME280;30477;48.224;11.470;2023-02-03T06:45:57;97066.25;;;4.21;70.59
44751;BME280;30477;48.224;11.470;2023-02-03T06:48:22;97089.38;;;4.20;70.43
44751;BME280;30477;48.224;11.470;2023-02-03T06:50:48;97089.25;;;4.23;70.32
44751;BME280;30477;48.224;11.470;2023-02-03T06:53:13;97089.38;;;4.20;70.09
44751;BME280;30477;48.224;11.470;2023-02-03T06:55:39;97093.84;;;4.16;70.22
44751;BME280;30477;48.224;11.470;2023-02-03T06:58:04;97092.19;;;4.15;70.24
44751;BME280;30477;48.224;11.470;2023-02-03T07:00:29;97082.63;;;4.19;70.24
44751;BME280;30477;48.224;11.470;2023-02-03T07:02:56;97086.06;;;4.18;70.36
44751;BME280;30477;48.224;11.470;2023-02-03T07:05:23;97075.81;;;4.18;70.25
44751;BME280;30477;48.224;11.470;2023-02-03T07:07:49;97084.25;;;4.20;70.22
44751;BME280;30477;48.224;11.470;2023-02-03T07:10:15;97070.56;;;4.21;70.21
44751;BME280;30477;48.224;11.470;2023-02-03T07:12:41;97071.16;;;4.26;70.19
44751;BME280;30477;48.224;11.470;2023-02-03T07:15:07;97067.06;;;4.22;70.06
44751;BME280;30477;48.224;11.470;2023-02-03T07:17:33;97069.88;;;4.17;70.00
44751;BME280;30477;48.224;11.470;2023-02-03T07:19:58;97060.31;;;4.21;70.06
44751;BME280;30477;48.224;11.470;2023-02-03T07:22:23;97049.75;;;4.27;70.12
44751;BME280;30477;48.224;11.470;2023-02-03T07:24:49;97054.72;;;4.30;70.02
44751;BME280;30477;48.224;11.470;2023-02-03T07:27:14;97032.63;;;4.27;70.05
44751;BME280;30477;48.224;11.470;2023-02-03T07:29:40;97051.25;;;4.31;69.99
44751;BME280;30477;48.224;11.470;2023-02-03T07:32:05;97035.66;;;4.36;69.87
44751;BME280;30477;48.224;11.470;2023-02-03T07:34:30;97011.59;;;4.38;69.70
44751;BME280;30477;48.224;11.470;2023-02-03T07:36:56;97031.34;;;4.36;69.66
44751;BME280;30477;48.224;11.470;2023-02-03T07:39:21;97026.97;;;4.38;69.46
44751;BME280;30477;48.224;11.470;2023-02-03T07:41:46;97033.91;;;4.36;69.90
44751;BME280;30477;48.224;11.470;2023-02-03T07:44:12;97028.53;;;4.41;69.29
44751;BME280;30477;48.224;11.470;2023-02-03T07:46:38;97030.88;;;4.45;69.13
44751;BME280;30477;48.224;11.470;2023-02-03T07:49:11;97029.84;;;4.50;69.00
44751;BME280;30477;48.224;11.470;2023-02-03T07:51:37;97025.28;;;4.55;69.15
44751;BME280;30477;48.224;11.470;2023-02-03T07:54:02;97022.56;;;4.58;68.85
44751;BME280;30477;48.224;11.470;2023-02-03T07:56:28;97020.72;;;4.60;68.63
44751;BME280;30477;48.224;11.470;2023-02-03T07:58:54;97029.09;;;4.63;68.25
44751;BME280;30477;48.224;11.470;2023-02-03T08:01:20;97025.47;;;4.67;68.13
44751;BME280;30477;48.224;11.470;2023-02-03T08:03:45;97029.53;;;4.72;68.01
44751;BME280;30477;48.224;11.470;2023-02-03T08:06:11;97018.97;;;4.78;67.79
44751;BME280;30477;48.224;11.470;2023-02-03T08:08:36;97022.19;;;4.81;68.09
44751;BME280;30477;48.224;11.470;2023-02-03T08:11:02;97016.00;;;4.85;67.94
44751;BME280;30477;48.224;11.470;2023-02-03T08:13:27;97030.47;;;4.86;67.61
44751;BME280;30477;48.224;11.470;2023-02-03T08:15:52;97045.47;;;4.94;67.61
44751;BME280;30477;48.224;11.470;2023-02-03T08:18:18;97034.38;;;4.94;67.33
44751;BME280;30477;48.224;11.470;2023-02-03T08:20:46;97048.84;;;4.95;67.11
44751;BME280;30477;48.224;11.470;2023-02-03T08:23:12;97050.75;;;4.91;66.94
44751;BME280;30477;48.224;11.470;2023-02-03T08:25:37;97045.59;;;4.91;66.88
44751;BME280;30477;48.224;11.470;2023-02-03T08:28:03;97051.72;;;4.88;66.87
44751;BME280;30477;48.224;11.470;2023-02-03T08:30:28;97062.00;;;4.88;66.68
44751;BME280;30477;48.224;11.470;2023-02-03T08:32:53;97073.25;;;4.86;66.44
44751;BME280;30477;48.224;11.470;2023-02-03T08:35:19;97068.94;;;4.86;66.50
44751;BME280;30477;48.224;11.470;2023-02-03T08:37:44;97064.56;;;4.88;66.26
44751;BME280;30477;48.224;11.470;2023-02-03T08:40:10;97080.69;;;4.91;66.37
44751;BME280;30477;48.224;11.470;2023-02-03T08:42:36;97055.03;;;4.91;66.18
44751;BME280;30477;48.224;11.470;2023-02-03T08:45:01;97047.28;;;4.92;65.91
44751;BME280;30477;48.224;11.470;2023-02-03T08:47:27;97042.22;;;4.91;65.66
44751;BME280;30477;48.224;11.470;2023-02-03T08:49:52;97030.88;;;4.95;65.61
44751;BME280;30477;48.224;11.470;2023-02-03T08:52:18;97031.50;;;5.00;65.65
44751;BME280;30477;48.224;11.470;2023-02-03T08:54:43;97032.25;;;5.02;65.51
44751;BME280;30477;48.224;11.470;2023-02-03T08:57:09;97026.94;;;5.05;65.42
44751;BME280;30477;48.224;11.470;2023-02-03T08:59:37;97018.97;;;5.09;65.23
44751;BME280;30477;48.224;11.470;2023-02-03T09:02:04;97015.41;;;5.12;65.40
44751;BME280;30477;48.224;11.470;2023-02-03T09:04:29;97028.09;;;5.15;65.26
44751;BME280;30477;48.224;11.470;2023-02-03T09:06:57;97027.91;;;5.18;65.19
44751;BME280;30477;48.224;11.470;2023-02-03T09:09:23;97019.41;;;5.18;64.95
44751;BME280;30477;48.224;11.470;2023-02-03T09:11:50;97020.22;;;5.18;65.12
44751;BME280;30477;48.224;11.470;2023-02-03T09:14:16;97026.28;;;5.17;64.98
44751;BME280;30477;48.224;11.470;2023-02-03T09:16:41;97009.06;;;5.19;65.00
44751;BME280;30477;48.224;11.470;2023-02-03T09:19:07;97019.13;;;5.22;64.93
44751;BME280;30477;48.224;11.470;2023-02-03T09:21:34;97024.28;;;5.22;64.58
44751;BME280;30477;48.224;11.470;2023-02-03T09:24:00;97024.00;;;5.27;64.73
44751;BME280;30477;48.224;11.470;2023-02-03T09:26:26;97024.00;;;5.27;64.36
44751;BME280;30477;48.224;11.470;2023-02-03T09:28:52;97008.53;;;5.28;63.92
44751;BME280;30477;48.224;11.470;2023-02-03T09:31:17;97014.50;;;5.29;64.19
44751;BME280;30477;48.224;11.470;2023-02-03T09:33:45;97007.66;;;5.29;64.33
44751;BME280;30477;48.224;11.470;2023-02-03T09:36:11;97020.28;;;5.33;64.10
44751;BME280;30477;48.224;11.470;2023-02-03T09:38:37;97032.06;;;5.37;63.96
44751;BME280;30477;48.224;11.470;2023-02-03T09:41:16;97024.00;;;5.43;63.82
44751;BME280;30477;48.224;11.470;2023-02-03T09:46:40;97024.56;;;5.48;63.77
44751;BME280;30477;48.224;11.470;2023-02-03T09:49:37;97024.50;;;5.49;63.68
44751;BME280;30477;48.224;11.470;2023-02-03T09:57:24;97021.84;;;5.51;63.39
44751;BME280;30477;48.224;11.470;2023-02-03T09:59:50;97015.97;;;5.49;63.24
44751;BME280;30477;48.224;11.470;2023-02-03T10:02:23;97004.16;;;5.46;63.09
44751;BME280;30477;48.224;11.470;2023-02-03T10:05:19;97011.66;;;5.49;63.27
44751;BME280;30477;48.224;11.470;2023-02-03T10:16:01;97035.91;;;5.60;63.16
44751;BME280;30477;48.224;11.470;2023-02-03T10:18:42;97042.63;;;5.62;62.99
44751;BME280;30477;48.224;11.470;2023-02-03T10:21:18;97032.19;;;5.65;63.00
44751;BME280;30477;48.224;11.470;2023-02-03T10:23:50;97015.69;;;5.69;62.96
44751;BME280;30477;48.224;11.470;2023-02-03T10:26:21;97017.06;;;5.75;62.68
44751;BME280;30477;48.224;11.470;2023-02-03T10:28:57;97014.78;;;5.70;62.54
44751;BME280;30477;48.224;11.470;2023-02-03T10:31:27;97002.41;;;5.77;62.43
44751;BME280;30477;48.224;11.470;2023-02-03T10:34:04;97001.19;;;5.68;62.13
44751;BME280;30477;48.224;11.470;2023-02-03T10:36:37;97032.75;;;5.70;62.36
44751;BME280;30477;48.224;11.470;2023-02-03T10:42:05;97011.31;;;5.72;61.91
44751;BME280;30477;48.224;11.470;2023-02-03T10:47:40;97021.13;;;5.79;62.42
44751;BME280;30477;48.224;11.470;2023-02-03T10:50:06;97031.31;;;5.81;61.99
44751;BME280;30477;48.224;11.470;2023-02-03T10:52:35;97027.19;;;5.78;61.65
44751;BME280;30477;48.224;11.470;2023-02-03T10:55:06;97025.72;;;5.74;61.88
44751;BME280;30477;48.224;11.470;2023-02-03T10:57:34;97029.09;;;5.75;61.90
44751;BME280;30477;48.224;11.470;2023-02-03T11:00:30;97023.88;;;5.76;61.92
44751;BME280;30477;48.224;11.470;2023-02-03T11:03:24;97027.84;;;5.82;61.63
44751;BME280;30477;48.224;11.470;2023-02-03T11:08:37;97006.78;;;5.91;61.61
44751;BME280;30477;48.224;11.470;2023-02-03T11:11:06;97007.69;;;5.90;61.50
44751;BME280;30477;48.224;11.470;2023-02-03T11:13:32;96985.41;;;5.90;61.73
44751;BME280;30477;48.224;11.470;2023-02-03T11:16:06;96986.03;;;5.94;61.28
44751;BME280;30477;48.224;11.470;2023-02-03T11:18:54;96983.44;;;5.94;61.41
44751;BME280;30477;48.224;11.470;2023-02-03T11:21:24;96989.84;;;6.03;61.17
44751;BME280;30477;48.224;11.470;2023-02-03T11:24:17;96990.34;;;5.94;60.29
44751;BME280;30477;48.224;11.470;2023-02-03T11:27:05;96975.75;;;5.94;60.82
44751;BME280;30477;48.224;11.470;2023-02-03T11:29:35;96972.22;;;5.97;60.83
44751;BME280;30477;48.224;11.470;2023-02-03T11:32:27;96963.78;;;5.95;61.00
44751;BME280;30477;48.224;11.470;2023-02-03T11:35:03;96968.44;;;6.02;60.90
44751;BME280;30477;48.224;11.470;2023-02-03T11:37:36;96960.84;;;6.01;60.80
44751;BME280;30477;48.224;11.470;2023-02-03T11:42:41;96953.22;;;5.99;60.14
44751;BME280;30477;48.224;11.470;2023-02-03T11:47:51;96928.69;;;5.94;60.18
44751;BME280;30477;48.224;11.470;2023-02-03T11:53:02;96955.06;;;5.97;60.85
44751;BME280;30477;48.224;11.470;2023-02-03T12:01:20;96927.41;;;5.86;60.04
44751;BME280;30477;48.224;11.470;2023-02-03T12:06:50;96926.38;;;5.89;60.06
44751;BME280;30477;48.224;11.470;2023-02-03T12:20:35;96919.09;;;5.97;60.78
44751;BME280;30477;48.224;11.470;2023-02-03T12:23:53;96900.00;;;6.01;60.79
44751;BME280;30477;48.224;11.470;2023-02-03T12:26:34;96868.34;;;6.01;60.62
44751;BME280;30477;48.224;11.470;2023-02-03T12:29:03;96872.63;;;6.00;60.53
44751;BME280;30477;48.224;11.470;2023-02-03T12:31:35;96884.94;;;6.09;60.66
44751;BME280;30477;48.224;11.470;2023-02-03T12:34:20;96855.47;;;6.15;60.61
44751;BME280;30477;48.224;11.470;2023-02-03T12:37:12;96863.28;;;6.14;60.28
44751;BME280;30477;48.224;11.470;2023-02-03T12:42:31;96858.59;;;6.20;60.36
44751;BME280;30477;48.224;11.470;2023-02-03T12:45:03;96844.94;;;6.20;60.14
44751;BME280;30477;48.224;11.470;2023-02-03T12:47:51;96828.56;;;6.21;60.37
44751;BME280;30477;48.224;11.470;2023-02-03T12:50:22;96828.19;;;6.27;60.24
44751;BME280;30477;48.224;11.470;2023-02-03T12:53:10;96809.91;;;6.32;60.04
44751;BME280;30477;48.224;11.470;2023-02-03T12:55:51;96818.28;;;6.35;60.02
44751;BME280;30477;48.224;11.470;2023-02-03T12:58:39;96825.44;;;6.30;60.03
44751;BME280;30477;48.224;11.470;2023-02-03T13:01:13;96817.34;;;6.36;60.09
44751;BME280;30477;48.224;11.470;2023-02-03T13:03:46;96800.06;;;6.38;60.10
44751;BME280;30477;48.224;11.470;2023-02-03T13:06:29;96805.13;;;6.40;59.70
44751;BME280;30477;48.224;11.470;2023-02-03T13:09:04;96806.53;;;6.31;60.06
44751;BME280;30477;48.224;11.470;2023-02-03T13:12:02;96782.28;;;6.35;59.88
44751;BME280;30477;48.224;11.470;2023-02-03T13:14:35;96801.59;;;6.28;59.90
44751;BME280;30477;48.224;11.470;2023-02-03T13:17:19;96811.97;;;6.26;59.88
44751;BME280;30477;48.224;11.470;2023-02-03T13:20:13;96798.38;;;6.24;60.20
44751;BME280;30477;48.224;11.470;2023-02-03T13:22:35;96804.63;;;6.20;60.14
44751;BME280;30477;48.224;11.470;2023-02-03T13:25:23;96768.53;;;6.22;60.23
44751;BME280;30477;48.224;11.470;2023-02-03T13:41:08;96785.47;;;5.97;60.99
44751;BME280;30477;48.224;11.470;2023-02-03T13:43:45;96765.94;;;5.95;61.20
44751;BME280;30477;48.224;11.470;2023-02-03T13:46:33;96747.84;;;5.96;60.86
44751;BME280;30477;48.224;11.470;2023-02-03T13:49:01;96766.06;;;5.92;61.24
44751;BME280;30477;48.224;11.470;2023-02-03T13:51:31;96753.81;;;5.97;61.21
44751;BME280;30477;48.224;11.470;2023-02-03T13:54:12;96753.97;;;5.94;61.30
44751;BME280;30477;48.224;11.470;2023-02-03T13:56:39;96758.09;;;5.96;61.47
44751;BME280;30477;48.224;11.470;2023-02-03T13:59:26;96756.53;;;5.94;61.39
44751;BME280;30477;48.224;11.470;2023-02-03T14:02:57;96742.88;;;5.93;61.60
44751;BME280;30477;48.224;11.470;2023-02-03T14:04:59;96754.97;;;5.91;61.54
44751;BME280;30477;48.224;11.470;2023-02-03T14:07:30;96749.03;;;5.90;61.47
44751;BME280;30477;48.224;11.470;2023-02-03T14:22:50;96713.53;;;5.97;61.18
44751;BME280;30477;48.224;11.470;2023-02-03T14:25:18;96725.63;;;5.95;61.19
44751;BME280;30477;48.224;11.470;2023-02-03T14:27:44;96734.16;;;5.96;61.04
44751;BME280;30477;48.224;11.470;2023-02-03T14:30:12;96749.84;;;5.91;60.98
44751;BME280;30477;48.224;11.470;2023-02-03T14:32:50;96771.59;;;5.85;61.20
44751;BME280;30477;48.224;11.470;2023-02-03T14:35:18;96775.00;;;5.86;61.38
44751;BME280;30477;48.224;11.470;2023-02-03T14:37:52;96762.97;;;5.86;61.25
44751;BME280;30477;48.224;11.470;2023-02-03T14:45:59;96765.84;;;5.82;61.48
44751;BME280;30477;48.224;11.470;2023-02-03T14:56:35;96736.63;;;5.83;61.49
44751;BME280;30477;48.224;11.470;2023-02-03T14:59:26;96718.38;;;5.87;61.50
44751;BME280;30477;48.224;11.470;2023-02-03T15:04:22;96696.19;;;5.86;61.39
44751;BME280;30477;48.224;11.470;2023-02-03T15:06:50;96727.91;;;5.85;61.63
44751;BME280;30477;48.224;11.470;2023-02-03T15:09:41;96735.75;;;5.84;61.63
44751;BME280;30477;48.224;11.470;2023-02-03T15:12:21;96735.00;;;5.82;61.96
44751;BME280;30477;48.224;11.470;2023-02-03T15:14:47;96715.28;;;5.82;61.92
44751;BME280;30477;48.224;11.470;2023-02-03T15:17:26;96730.84;;;5.79;61.81
44751;BME280;30477;48.224;11.470;2023-02-03T15:19:52;96724.97;;;5.77;61.94
44751;BME280;30477;48.224;11.470;2023-02-03T15:22:28;96742.06;;;5.78;62.18
44751;BME280;30477;48.224;11.470;2023-02-03T15:24:58;96755.94;;;5.76;62.08